Thomson Spirit — 9HA2336 — position and weather

sailwx.info

Track history (hours):
 
Tides and Currents Weather Stations Pressure Air Temp Water Temp Dewpoint Dewpoint Depression Visibility Wind Speed Wind Dir Waves Ship Positions

Thomson Spirit

Last reported at 2014-Oct-02 15:31 UTC. Time now 2014-Oct-02 16:30 UTC.
Position N 38°43' W 009°07'.

Length 214 m; draft 7.8 m.

Type: Passenger vessel. MMSI: 248368000.

Date/timePositionNaut miles runAvg speedWind from/ knotsBaromVisibWave heightAir tempDewpointWater temp
2014-Oct-02 15:31N 38°43' W 009°07'0 0.0
2014-Oct-02 14:31N 38°43' W 009°07'0 0.0
2014-Oct-02 13:31N 38°43' W 009°07'0 0.0
2014-Oct-02 12:31N 38°43' W 009°07'0 0.0
2014-Oct-02 11:31N 38°43' W 009°07'0 0.0
2014-Oct-02 10:31N 38°43' W 009°07'0 0.0
2014-Oct-02 09:31N 38°43' W 009°07'0 0.0
2014-Oct-02 08:31N 38°43' W 009°07'0 0.0
2014-Oct-02 07:31N 38°43' W 009°07'3 3.1
2014-Oct-02 06:33N 38°41' W 009°11'1010.1
2014-Oct-02 05:34N 38°37' W 009°23'  
2014-Sep-29 04:21N 50°15' W 001°25'1518.4
2014-Sep-29 03:33N 50°19' W 001°02'1716.9
2014-Sep-29 02:33N 50°23' W 000°37'1615.8
2014-Sep-29 01:33N 50°26' W 000°12'1514.5
2014-Sep-29 00:34N 50°30' E 000°10'1413.6
2014-Sep-28 23:33N 50°34' E 000°30'1413.7
2014-Sep-28 22:33N 50°42' E 000°48'1515.5
2014-Sep-28 21:34N 50°51' E 001°08'1717.4
2014-Sep-28 20:34N 51°02' E 001°29'1717.0
2014-Sep-28 19:34N 51°15' E 001°47'1413.9
2014-Sep-28 18:34N 51°29' E 001°51'1414.0
2014-Sep-28 17:33N 51°42' E 001°45'1212.4
2014-Sep-28 16:34N 51°53' E 001°34'1010.3
2014-Sep-28 15:33N 51°57' E 001°19'2 1.9
2014-Sep-28 14:33N 51°57' E 001°15'0 0.0
2014-Sep-28 13:33N 51°57' E 001°15'0 0.0
2014-Sep-28 12:33N 51°57' E 001°15'0 0.0
2014-Sep-28 11:33N 51°57' E 001°15'0 0.0
2014-Sep-28 10:33N 51°57' E 001°15'0 0.0
2014-Sep-28 09:30N 51°57' E 001°15'0 0.0
2014-Sep-28 08:33N 51°57' E 001°15'0 0.0
2014-Sep-28 07:33N 51°57' E 001°15'0 0.0
2014-Sep-28 06:33N 51°57' E 001°15'0 0.0
2014-Sep-28 05:33N 51°57' E 001°15'1 0.7
2014-Sep-28 04:33N 51°57' E 001°17'9 9.3
2014-Sep-28 03:33N 51°57' E 001°32'1111.4
2014-Sep-28 02:33N 52°04' E 001°45'1312.1
2014-Sep-28 01:31N 52°08' E 002°05'1915.4
2014-Sep-28 00:16N 52°14' E 002°35'1217.3
2014-Sep-27 23:34N 52°19' E 002°53'1717.0
2014-Sep-27 22:34N 52°24' E 003°19'1716.8
2014-Sep-27 21:33N 52°30' E 003°46'1616.1
2014-Sep-27 20:34N 52°31' E 004°12'1414.1
2014-Sep-27 19:33N 52°28' E 004°35'3 3.0
2014-Sep-27 18:33N 52°28' E 004°40'8 7.6
2014-Sep-27 17:33N 52°25' E 004°51'3 3.0
2014-Sep-27 16:30N 52°23' E 004°55'0 0.0
2014-Sep-27 15:33N 52°23' E 004°55'0 0.0
2014-Sep-27 14:33N 52°23' E 004°55'0 0.0
2014-Sep-27 13:33N 52°23' E 004°55'0 0.0
2014-Sep-27 12:33N 52°23' E 004°55'0 0.0
2014-Sep-27 11:33N 52°23' E 004°55'0 0.0
2014-Sep-27 10:33N 52°23' E 004°55'0 0.0
2014-Sep-27 09:30N 52°23' E 004°55'0 0.0
2014-Sep-27 08:33N 52°23' E 004°55'1 1.2
2014-Sep-27 07:34N 52°24' E 004°54'7 6.9
2014-Sep-27 06:34N 52°26' E 004°43'4 4.4
2014-Sep-27 05:34N 52°28' E 004°37'7 7.2
2014-Sep-27 04:33N 52°29' E 004°25'1413.9
2014-Sep-27 03:33N 52°36' E 004°05'1716.6
2014-Sep-27 02:31N 52°52' E 003°58'1716.8
2014-Sep-27 01:31N 53°05' E 004°16'3417.2
2014-Sep-26 23:33N 53°32' E 004°51'1717.1
2014-Sep-26 22:33N 53°38' E 005°18'1616.2
2014-Sep-26 21:33N 53°43' E 005°44'6516.3
2014-Sep-26 17:33N 53°60' E 007°31'1717.0
2014-Sep-26 16:33N 54°01' E 008°00'1515.2
2014-Sep-26 15:33N 53°59' E 008°26'1514.7
2014-Sep-26 14:33N 53°51' E 008°46'1212.4
2014-Sep-26 13:33N 53°53' E 009°07'2 2.2
2014-Sep-26 12:33N 53°54' E 009°10'32 4.6
2014-Sep-26 05:33N 54°20' E 009°44'6 5.6
2014-Sep-26 04:33N 54°21' E 009°53'3 3.3
2014-Sep-26 03:33N 54°21' E 009°58'6 5.8
2014-Sep-26 02:33N 54°22' E 010°08'2 1.6
2014-Sep-26 01:33N 54°22' E 010°11'1010.0
2014-Sep-26 00:33N 54°31' E 010°20'1312.6
2014-Sep-25 23:33N 54°35' E 010°41'1512.5
2014-Sep-25 22:23N 54°36' E 011°06'1012.4
2014-Sep-25 21:34N 54°32' E 011°23'1313.2
2014-Sep-25 20:33N 54°27' E 011°43'1413.6
2014-Sep-25 19:33N 54°19' E 012°02'9 7.3
2014-Sep-25 18:23N 54°11' E 012°06'1 0.2
2014-Sep-25 13:20N 54°10' E 012°06'7 8.9
2014-Sep-25 12:33N 54°16' E 012°01'1211.5
2014-Sep-25 11:33N 54°26' E 012°10'1915.5
2014-Sep-25 10:21N 54°42' E 012°28'1315.7
2014-Sep-25 09:33N 54°48' E 012°46'1716.3
2014-Sep-25 08:31N 54°53' E 013°14'1616.3
2014-Sep-25 07:33N 54°60' E 013°40'1616.6
2014-Sep-25 06:33N 55°05' E 014°06'1717.0
2014-Sep-25 05:34N 55°19' E 014°25'1717.0
2014-Sep-25 04:33N 55°30' E 014°47'1717.0
2014-Sep-25 03:33N 55°38' E 015°14'2516.9
2014-Sep-25 02:04N 55°50' E 015°53'916.8
2014-Sep-25 01:33N 55°55' E 016°06'7116.2
2014-Sep-24 21:10N 56°54' E 017°16'1016.8
2014-Sep-24 20:33N 57°04' E 017°23'1716.7
2014-Sep-24 19:33N 57°19' E 017°34'22416.6
2014-Sep-24 06:06N 59°35' E 023°13'916.9
2014-Sep-24 05:33N 59°39' E 023°29'1717.1
2014-Sep-24 04:34N 59°44' E 024°02'1917.0
2014-Sep-24 03:26N 59°48' E 024°39'4916.9
2014-Sep-24 00:31N 59°59' E 026°14'1616.4
2014-Sep-23 23:33N 60°00' E 026°46'10213.9
2014-Sep-23 16:16N 59°57' E 030°09'1 1.5
2014-Sep-23 15:32N 59°57' E 030°11'0 0.0
2014-Sep-23 14:33N 59°57' E 030°11'0 0.0
2014-Sep-23 13:33N 59°57' E 030°11'0 0.0
2014-Sep-23 12:33N 59°57' E 030°11'0 0.0
2014-Sep-23 11:33N 59°57' E 030°11'0 0.0
2014-Sep-23 10:33N 59°57' E 030°11'0 0.0
2014-Sep-23 01:27N 59°57' E 030°11'0 0.0
2014-Sep-23 00:32N 59°57' E 030°11'0 0.0
2014-Sep-22 20:11N 59°57' E 030°11'0 0.0
2014-Sep-22 16:26N 59°57' E 030°11'  
Track history (hours):
 
Tides and Currents Weather Stations Pressure Air Temp Water Temp Dewpoint Dewpoint Depression Visibility Wind Speed Wind Dir Waves Ship Positions

Thomson Spirit

Last reported at 2014-Oct-02 15:31 UTC. Time now 2014-Oct-02 16:30 UTC.
Position N 38°43' W 009°07'.

Length 214 m; draft 7.8 m.

Type: Passenger vessel. MMSI: 248368000.

Date/timePositionNaut miles runAvg speedWind from/ knotsBaromVisibWave heightAir tempDewpointWater temp
2014-Oct-02 15:31N 38°43' W 009°07'0 0.0
2014-Oct-02 14:31N 38°43' W 009°07'0 0.0
2014-Oct-02 13:31N 38°43' W 009°07'0 0.0
2014-Oct-02 12:31N 38°43' W 009°07'0 0.0
2014-Oct-02 11:31N 38°43' W 009°07'0 0.0
2014-Oct-02 10:31N 38°43' W 009°07'0 0.0
2014-Oct-02 09:31N 38°43' W 009°07'0 0.0
2014-Oct-02 08:31N 38°43' W 009°07'0 0.0
2014-Oct-02 07:31N 38°43' W 009°07'3 3.1
2014-Oct-02 06:33N 38°41' W 009°11'1010.1
2014-Oct-02 05:34N 38°37' W 009°23'  
2014-Sep-29 04:21N 50°15' W 001°25'1518.4
2014-Sep-29 03:33N 50°19' W 001°02'1716.9
2014-Sep-29 02:33N 50°23' W 000°37'1615.8
2014-Sep-29 01:33N 50°26' W 000°12'1514.5
2014-Sep-29 00:34N 50°30' E 000°10'1413.6
2014-Sep-28 23:33N 50°34' E 000°30'1413.7
2014-Sep-28 22:33N 50°42' E 000°48'1515.5
2014-Sep-28 21:34N 50°51' E 001°08'1717.4
2014-Sep-28 20:34N 51°02' E 001°29'1717.0
2014-Sep-28 19:34N 51°15' E 001°47'1413.9
2014-Sep-28 18:34N 51°29' E 001°51'1414.0
2014-Sep-28 17:33N 51°42' E 001°45'1212.4
2014-Sep-28 16:34N 51°53' E 001°34'1010.3
2014-Sep-28 15:33N 51°57' E 001°19'2 1.9
2014-Sep-28 14:33N 51°57' E 001°15'0 0.0
2014-Sep-28 13:33N 51°57' E 001°15'0 0.0
2014-Sep-28 12:33N 51°57' E 001°15'0 0.0
2014-Sep-28 11:33N 51°57' E 001°15'0 0.0
2014-Sep-28 10:33N 51°57' E 001°15'0 0.0
2014-Sep-28 09:30N 51°57' E 001°15'0 0.0
2014-Sep-28 08:33N 51°57' E 001°15'0 0.0
2014-Sep-28 07:33N 51°57' E 001°15'0 0.0
2014-Sep-28 06:33N 51°57' E 001°15'0 0.0
2014-Sep-28 05:33N 51°57' E 001°15'1 0.7
2014-Sep-28 04:33N 51°57' E 001°17'9 9.3
2014-Sep-28 03:33N 51°57' E 001°32'1111.4
2014-Sep-28 02:33N 52°04' E 001°45'1312.1
2014-Sep-28 01:31N 52°08' E 002°05'1915.4
2014-Sep-28 00:16N 52°14' E 002°35'1217.3
2014-Sep-27 23:34N 52°19' E 002°53'1717.0
2014-Sep-27 22:34N 52°24' E 003°19'1716.8
2014-Sep-27 21:33N 52°30' E 003°46'1616.1
2014-Sep-27 20:34N 52°31' E 004°12'1414.1
2014-Sep-27 19:33N 52°28' E 004°35'3 3.0
2014-Sep-27 18:33N 52°28' E 004°40'8 7.6
2014-Sep-27 17:33N 52°25' E 004°51'3 3.0
2014-Sep-27 16:30N 52°23' E 004°55'0 0.0
2014-Sep-27 15:33N 52°23' E 004°55'0 0.0
2014-Sep-27 14:33N 52°23' E 004°55'0 0.0
2014-Sep-27 13:33N 52°23' E 004°55'0 0.0
2014-Sep-27 12:33N 52°23' E 004°55'0 0.0
2014-Sep-27 11:33N 52°23' E 004°55'0 0.0
2014-Sep-27 10:33N 52°23' E 004°55'0 0.0
2014-Sep-27 09:30N 52°23' E 004°55'0 0.0
2014-Sep-27 08:33N 52°23' E 004°55'1 1.2
2014-Sep-27 07:34N 52°24' E 004°54'7 6.9
2014-Sep-27 06:34N 52°26' E 004°43'4 4.4
2014-Sep-27 05:34N 52°28' E 004°37'7 7.2
2014-Sep-27 04:33N 52°29' E 004°25'1413.9
2014-Sep-27 03:33N 52°36' E 004°05'1716.6
2014-Sep-27 02:31N 52°52' E 003°58'1716.8
2014-Sep-27 01:31N 53°05' E 004°16'3417.2
2014-Sep-26 23:33N 53°32' E 004°51'1717.1
2014-Sep-26 22:33N 53°38' E 005°18'1616.2
2014-Sep-26 21:33N 53°43' E 005°44'6516.3
2014-Sep-26 17:33N 53°60' E 007°31'1717.0
2014-Sep-26 16:33N 54°01' E 008°00'1515.2
2014-Sep-26 15:33N 53°59' E 008°26'1514.7
2014-Sep-26 14:33N 53°51' E 008°46'1212.4
2014-Sep-26 13:33N 53°53' E 009°07'2 2.2
2014-Sep-26 12:33N 53°54' E 009°10'32 4.6
2014-Sep-26 05:33N 54°20' E 009°44'6 5.6
2014-Sep-26 04:33N 54°21' E 009°53'3 3.3
2014-Sep-26 03:33N 54°21' E 009°58'6 5.8
2014-Sep-26 02:33N 54°22' E 010°08'2 1.6
2014-Sep-26 01:33N 54°22' E 010°11'1010.0
2014-Sep-26 00:33N 54°31' E 010°20'1312.6
2014-Sep-25 23:33N 54°35' E 010°41'1512.5
2014-Sep-25 22:23N 54°36' E 011°06'1012.4
2014-Sep-25 21:34N 54°32' E 011°23'1313.2
2014-Sep-25 20:33N 54°27' E 011°43'1413.6
2014-Sep-25 19:33N 54°19' E 012°02'9 7.3
2014-Sep-25 18:23N 54°11' E 012°06'1 0.2
2014-Sep-25 13:20N 54°10' E 012°06'7 8.9
2014-Sep-25 12:33N 54°16' E 012°01'1211.5
2014-Sep-25 11:33N 54°26' E 012°10'1915.5
2014-Sep-25 10:21N 54°42' E 012°28'1315.7
2014-Sep-25 09:33N 54°48' E 012°46'1716.3
2014-Sep-25 08:31N 54°53' E 013°14'1616.3
2014-Sep-25 07:33N 54°60' E 013°40'1616.6
2014-Sep-25 06:33N 55°05' E 014°06'1717.0
2014-Sep-25 05:34N 55°19' E 014°25'1717.0
2014-Sep-25 04:33N 55°30' E 014°47'1717.0
2014-Sep-25 03:33N 55°38' E 015°14'2516.9
2014-Sep-25 02:04N 55°50' E 015°53'916.8
2014-Sep-25 01:33N 55°55' E 016°06'7116.2
2014-Sep-24 21:10N 56°54' E 017°16'1016.8
2014-Sep-24 20:33N 57°04' E 017°23'1716.7
2014-Sep-24 19:33N 57°19' E 017°34'22416.6
2014-Sep-24 06:06N 59°35' E 023°13'916.9
2014-Sep-24 05:33N 59°39' E 023°29'1717.1
2014-Sep-24 04:34N 59°44' E 024°02'1917.0
2014-Sep-24 03:26N 59°48' E 024°39'4916.9
2014-Sep-24 00:31N 59°59' E 026°14'1616.4
2014-Sep-23 23:33N 60°00' E 026°46'10213.9
2014-Sep-23 16:16N 59°57' E 030°09'1 1.5
2014-Sep-23 15:32N 59°57' E 030°11'0 0.0
2014-Sep-23 14:33N 59°57' E 030°11'0 0.0
2014-Sep-23 13:33N 59°57' E 030°11'0 0.0
2014-Sep-23 12:33N 59°57' E 030°11'0 0.0
2014-Sep-23 11:33N 59°57' E 030°11'0 0.0
2014-Sep-23 10:33N 59°57' E 030°11'0 0.0
2014-Sep-23 01:27N 59°57' E 030°11'0 0.0
2014-Sep-23 00:32N 59°57' E 030°11'0 0.0
2014-Sep-22 20:11N 59°57' E 030°11'0 0.0
2014-Sep-22 16:26N 59°57' E 030°11'  

Dump ship's entire track history